sensor_id;sensor_type;location;lat;lon;timestamp;temperature;humidity
38084;DHT22;23894;51.466;7.444;2022-08-16T00:01:41;20.90;99.90
38084;DHT22;23894;51.466;7.444;2022-08-16T00:03:41;20.80;99.90
38084;DHT22;23894;51.466;7.444;2022-08-16T00:05:43;20.80;99.90
38084;DHT22;23894;51.466;7.444;2022-08-16T00:07:44;20.70;99.90
38084;DHT22;23894;51.466;7.444;2022-08-16T00:09:44;20.70;99.90
38084;DHT22;23894;51.466;7.444;2022-08-16T00:11:45;20.60;99.90
38084;DHT22;23894;51.466;7.444;2022-08-16T00:13:48;20.60;99.90
38084;DHT22;23894;51.466;7.444;2022-08-16T00:15:50;20.50;99.90
38084;DHT22;23894;51.466;7.444;2022-08-16T00:17:50;20.40;99.90
38084;DHT22;23894;51.466;7.444;2022-08-16T00:19:51;20.40;99.90
38084;DHT22;23894;51.466;7.444;2022-08-16T00:21:53;20.40;99.90
38084;DHT22;23894;51.466;7.444;2022-08-16T00:23:54;20.30;99.90
38084;DHT22;23894;51.466;7.444;2022-08-16T00:25:55;20.30;99.90
38084;DHT22;23894;51.466;7.444;2022-08-16T00:27:55;20.20;99.90
38084;DHT22;23894;51.466;7.444;2022-08-16T00:29:56;20.10;99.90
38084;DHT22;23894;51.466;7.444;2022-08-16T00:31:58;20.10;99.90
38084;DHT22;23894;51.466;7.444;2022-08-16T00:34:01;20.10;99.90
38084;DHT22;23894;51.466;7.444;2022-08-16T00:36:02;20.10;99.90
38084;DHT22;23894;51.466;7.444;2022-08-16T00:38:03;20.10;99.90
38084;DHT22;23894;51.466;7.444;2022-08-16T00:40:04;20.00;99.90
38084;DHT22;23894;51.466;7.444;2022-08-16T00:42:07;20.00;99.90
38084;DHT22;23894;51.466;7.444;2022-08-16T00:44:07;20.00;99.90
38084;DHT22;23894;51.466;7.444;2022-08-16T00:48:30;19.80;99.90
38084;DHT22;23894;51.466;7.444;2022-08-16T00:50:32;19.80;99.90
38084;DHT22;23894;51.466;7.444;2022-08-16T00:52:33;19.80;99.90
38084;DHT22;23894;51.466;7.444;2022-08-16T00:54:34;19.80;99.90
38084;DHT22;23894;51.466;7.444;2022-08-16T00:56:38;19.70;99.90
38084;DHT22;23894;51.466;7.444;2022-08-16T00:58:42;19.80;99.90
38084;DHT22;23894;51.466;7.444;2022-08-16T01:00:45;19.80;99.90
38084;DHT22;23894;51.466;7.444;2022-08-16T01:02:46;19.80;99.90
38084;DHT22;23894;51.466;7.444;2022-08-16T01:04:47;19.80;99.90
38084;DHT22;23894;51.466;7.444;2022-08-16T01:06:48;19.80;99.90
38084;DHT22;23894;51.466;7.444;2022-08-16T01:08:51;19.90;99.90
38084;DHT22;23894;51.466;7.444;2022-08-16T01:10:54;19.90;99.90
38084;DHT22;23894;51.466;7.444;2022-08-16T01:12:55;20.00;99.90
38084;DHT22;23894;51.466;7.444;2022-08-16T01:14:57;19.90;99.90
38084;DHT22;23894;51.466;7.444;2022-08-16T01:16:58;20.00;99.90
38084;DHT22;23894;51.466;7.444;2022-08-16T01:23:30;20.10;99.90
38084;DHT22;23894;51.466;7.444;2022-08-16T01:25:40;20.10;99.90
38084;DHT22;23894;51.466;7.444;2022-08-16T01:27:47;20.20;99.90
38084;DHT22;23894;51.466;7.444;2022-08-16T01:30:07;20.20;99.90
38084;DHT22;23894;51.466;7.444;2022-08-16T01:32:08;20.30;99.90
38084;DHT22;23894;51.466;7.444;2022-08-16T01:34:10;20.20;99.90
38084;DHT22;23894;51.466;7.444;2022-08-16T01:36:11;20.30;99.90
38084;DHT22;23894;51.466;7.444;2022-08-16T01:38:13;20.30;99.90
38084;DHT22;23894;51.466;7.444;2022-08-16T01:40:16;20.40;99.90
38084;DHT22;23894;51.466;7.444;2022-08-16T01:42:20;20.40;99.90
38084;DHT22;23894;51.466;7.444;2022-08-16T01:44:22;20.40;99.90
38084;DHT22;23894;51.466;7.444;2022-08-16T01:46:29;20.40;99.90
38084;DHT22;23894;51.466;7.444;2022-08-16T01:48:31;20.40;99.90
38084;DHT22;23894;51.466;7.444;2022-08-16T01:50:32;20.50;99.90
38084;DHT22;23894;51.466;7.444;2022-08-16T01:52:34;20.50;99.90
38084;DHT22;23894;51.466;7.444;2022-08-16T01:54:35;20.50;99.90
38084;DHT22;23894;51.466;7.444;2022-08-16T01:56:36;20.50;99.90
38084;DHT22;23894;51.466;7.444;2022-08-16T01:58:36;20.50;99.90
38084;DHT22;23894;51.466;7.444;2022-08-16T02:00:37;20.50;99.90
38084;DHT22;23894;51.466;7.444;2022-08-16T02:02:38;20.50;99.90
38084;DHT22;23894;51.466;7.444;2022-08-16T02:04:38;20.50;99.90
38084;DHT22;23894;51.466;7.444;2022-08-16T02:06:39;20.50;99.90
38084;DHT22;23894;51.466;7.444;2022-08-16T02:08:40;20.50;99.90
38084;DHT22;23894;51.466;7.444;2022-08-16T02:10:41;20.50;99.90
38084;DHT22;23894;51.466;7.444;2022-08-16T02:12:42;20.50;99.90
38084;DHT22;23894;51.466;7.444;2022-08-16T02:14:43;20.50;99.90
38084;DHT22;23894;51.466;7.444;2022-08-16T02:16:43;20.50;99.90
38084;DHT22;23894;51.466;7.444;2022-08-16T02:18:44;20.50;99.90
38084;DHT22;23894;51.466;7.444;2022-08-16T02:20:49;20.60;99.90
38084;DHT22;23894;51.466;7.444;2022-08-16T02:22:51;20.60;99.90
38084;DHT22;23894;51.466;7.444;2022-08-16T02:24:51;20.60;99.90
38084;DHT22;23894;51.466;7.444;2022-08-16T02:26:52;20.70;99.90
38084;DHT22;23894;51.466;7.444;2022-08-16T02:28:52;20.70;99.90
38084;DHT22;23894;51.466;7.444;2022-08-16T02:30:55;20.70;99.90
38084;DHT22;23894;51.466;7.444;2022-08-16T02:32:56;20.70;99.90
38084;DHT22;23894;51.466;7.444;2022-08-16T02:34:57;20.70;99.90
38084;DHT22;23894;51.466;7.444;2022-08-16T02:36:57;20.70;99.90
38084;DHT22;23894;51.466;7.444;2022-08-16T02:38:58;20.70;99.90
38084;DHT22;23894;51.466;7.444;2022-08-16T02:41:00;20.70;99.90
38084;DHT22;23894;51.466;7.444;2022-08-16T02:43:00;20.70;99.90
38084;DHT22;23894;51.466;7.444;2022-08-16T02:45:01;20.70;99.90
38084;DHT22;23894;51.466;7.444;2022-08-16T02:47:02;20.70;99.90
38084;DHT22;23894;51.466;7.444;2022-08-16T02:49:03;20.70;99.90
38084;DHT22;23894;51.466;7.444;2022-08-16T02:51:05;20.70;99.90
38084;DHT22;23894;51.466;7.444;2022-08-16T02:53:06;20.70;99.90
38084;DHT22;23894;51.466;7.444;2022-08-16T02:55:06;20.70;99.90
38084;DHT22;23894;51.466;7.444;2022-08-16T02:57:07;20.70;99.90
38084;DHT22;23894;51.466;7.444;2022-08-16T02:59:07;20.70;99.90
38084;DHT22;23894;51.466;7.444;2022-08-16T03:01:08;20.70;99.90
38084;DHT22;23894;51.466;7.444;2022-08-16T03:03:09;20.70;99.90
38084;DHT22;23894;51.466;7.444;2022-08-16T03:05:11;20.70;99.90
38084;DHT22;23894;51.466;7.444;2022-08-16T03:07:12;20.70;99.90
38084;DHT22;23894;51.466;7.444;2022-08-16T03:09:14;20.60;99.90
38084;DHT22;23894;51.466;7.444;2022-08-16T03:11:15;20.60;99.90
38084;DHT22;23894;51.466;7.444;2022-08-16T03:13:20;20.60;99.90
38084;DHT22;23894;51.466;7.444;2022-08-16T03:15:20;20.50;99.90
38084;DHT22;23894;51.466;7.444;2022-08-16T03:17:21;20.60;99.90
38084;DHT22;23894;51.466;7.444;2022-08-16T03:19:22;20.50;99.90
38084;DHT22;23894;51.466;7.444;2022-08-16T03:21:22;20.50;99.90
38084;DHT22;23894;51.466;7.444;2022-08-16T03:23:23;20.50;99.90
38084;DHT22;23894;51.466;7.444;2022-08-16T03:25:23;20.50;99.90
38084;DHT22;23894;51.466;7.444;2022-08-16T03:27:25;20.50;99.90
38084;DHT22;23894;51.466;7.444;2022-08-16T03:29:29;20.40;99.90
38084;DHT22;23894;51.466;7.444;2022-08-16T03:31:30;20.50;99.90
38084;DHT22;23894;51.466;7.444;2022-08-16T03:33:31;20.50;99.90
38084;DHT22;23894;51.466;7.444;2022-08-16T03:35:35;20.40;99.90
38084;DHT22;23894;51.466;7.444;2022-08-16T03:37:36;20.30;99.90
38084;DHT22;23894;51.466;7.444;2022-08-16T03:39:36;20.30;99.90
38084;DHT22;23894;51.466;7.444;2022-08-16T03:41:37;20.30;99.90
38084;DHT22;23894;51.466;7.444;2022-08-16T03:43:40;20.30;99.90
38084;DHT22;23894;51.466;7.444;2022-08-16T03:45:41;20.30;99.90
38084;DHT22;23894;51.466;7.444;2022-08-16T03:47:41;20.30;99.90
38084;DHT22;23894;51.466;7.444;2022-08-16T03:49:42;20.20;99.90
38084;DHT22;23894;51.466;7.444;2022-08-16T03:51:42;20.20;99.90
38084;DHT22;23894;51.466;7.444;2022-08-16T03:53:43;20.20;99.90
38084;DHT22;23894;51.466;7.444;2022-08-16T03:55:44;20.20;99.90
38084;DHT22;23894;51.466;7.444;2022-08-16T03:57:45;20.20;99.90
38084;DHT22;23894;51.466;7.444;2022-08-16T03:59:45;20.20;99.90
38084;DHT22;23894;51.466;7.444;2022-08-16T04:01:46;20.20;99.90
38084;DHT22;23894;51.466;7.444;2022-08-16T04:03:46;20.20;99.90
38084;DHT22;23894;51.466;7.444;2022-08-16T04:05:47;20.20;99.90
38084;DHT22;23894;51.466;7.444;2022-08-16T04:07:50;20.20;99.90
38084;DHT22;23894;51.466;7.444;2022-08-16T04:09:50;20.20;99.90
38084;DHT22;23894;51.466;7.444;2022-08-16T04:11:51;20.20;99.90
38084;DHT22;23894;51.466;7.444;2022-08-16T04:13:52;20.20;99.90
38084;DHT22;23894;51.466;7.444;2022-08-16T04:15:52;20.10;99.90
38084;DHT22;23894;51.466;7.444;2022-08-16T04:17:53;20.10;99.90
38084;DHT22;23894;51.466;7.444;2022-08-16T04:19:55;20.10;99.90
38084;DHT22;23894;51.466;7.444;2022-08-16T04:21:56;20.20;99.90
38084;DHT22;23894;51.466;7.444;2022-08-16T04:23:56;20.20;99.90
38084;DHT22;23894;51.466;7.444;2022-08-16T04:25:57;20.20;99.90
38084;DHT22;23894;51.466;7.444;2022-08-16T04:27:57;20.20;99.90
38084;DHT22;23894;51.466;7.444;2022-08-16T04:29:59;20.20;99.90
38084;DHT22;23894;51.466;7.444;2022-08-16T04:32:00;20.20;99.90
38084;DHT22;23894;51.466;7.444;2022-08-16T04:34:00;20.10;99.90
38084;DHT22;23894;51.466;7.444;2022-08-16T04:36:01;20.20;99.90
38084;DHT22;23894;51.466;7.444;2022-08-16T04:38:03;20.20;99.90
38084;DHT22;23894;51.466;7.444;2022-08-16T04:40:05;20.20;99.90
38084;DHT22;23894;51.466;7.444;2022-08-16T04:42:09;20.10;99.90
38084;DHT22;23894;51.466;7.444;2022-08-16T04:44:09;20.10;99.90
38084;DHT22;23894;51.466;7.444;2022-08-16T04:46:10;20.10;99.90
38084;DHT22;23894;51.466;7.444;2022-08-16T04:48:14;20.10;99.90
38084;DHT22;23894;51.466;7.444;2022-08-16T04:50:16;20.10;99.90
38084;DHT22;23894;51.466;7.444;2022-08-16T04:52:19;20.10;99.90
38084;DHT22;23894;51.466;7.444;2022-08-16T04:54:21;20.10;99.90
38084;DHT22;23894;51.466;7.444;2022-08-16T04:56:21;20.10;99.90
38084;DHT22;23894;51.466;7.444;2022-08-16T04:58:22;20.10;99.90
38084;DHT22;23894;51.466;7.444;2022-08-16T05:00:25;20.10;99.90
38084;DHT22;23894;51.466;7.444;2022-08-16T05:02:26;20.10;99.90
38084;DHT22;23894;51.466;7.444;2022-08-16T05:04:27;20.10;99.90
38084;DHT22;23894;51.466;7.444;2022-08-16T05:06:28;20.10;99.90
38084;DHT22;23894;51.466;7.444;2022-08-16T05:08:29;20.10;99.90
38084;DHT22;23894;51.466;7.444;2022-08-16T05:10:30;20.10;99.90
38084;DHT22;23894;51.466;7.444;2022-08-16T05:12:31;20.10;99.90
38084;DHT22;23894;51.466;7.444;2022-08-16T05:14:32;20.10;99.90
38084;DHT22;23894;51.466;7.444;2022-08-16T05:16:32;20.10;99.90
38084;DHT22;23894;51.466;7.444;2022-08-16T05:18:33;20.20;99.90
38084;DHT22;23894;51.466;7.444;2022-08-16T05:20:34;20.20;99.90
38084;DHT22;23894;51.466;7.444;2022-08-16T05:22:35;20.20;99.90
38084;DHT22;23894;51.466;7.444;2022-08-16T05:24:38;20.20;99.90
38084;DHT22;23894;51.466;7.444;2022-08-16T05:26:38;20.20;99.90
38084;DHT22;23894;51.466;7.444;2022-08-16T05:28:39;20.20;99.90
38084;DHT22;23894;51.466;7.444;2022-08-16T05:30:39;20.20;99.90
38084;DHT22;23894;51.466;7.444;2022-08-16T05:32:41;20.20;99.90
38084;DHT22;23894;51.466;7.444;2022-08-16T05:34:41;20.30;99.90
38084;DHT22;23894;51.466;7.444;2022-08-16T05:36:42;20.30;99.90
38084;DHT22;23894;51.466;7.444;2022-08-16T05:38:42;20.30;99.90
38084;DHT22;23894;51.466;7.444;2022-08-16T05:40:43;20.30;99.90
38084;DHT22;23894;51.466;7.444;2022-08-16T05:42:44;20.30;99.90
38084;DHT22;23894;51.466;7.444;2022-08-16T05:44:45;20.30;99.90
38084;DHT22;23894;51.466;7.444;2022-08-16T05:46:45;20.40;99.90
38084;DHT22;23894;51.466;7.444;2022-08-16T05:48:46;20.40;99.90
38084;DHT22;23894;51.466;7.444;2022-08-16T05:50:47;20.40;99.90
38084;DHT22;23894;51.466;7.444;2022-08-16T05:52:47;20.50;99.90
38084;DHT22;23894;51.466;7.444;2022-08-16T05:54:48;20.40;99.90
38084;DHT22;23894;51.466;7.444;2022-08-16T05:56:49;20.50;99.90
38084;DHT22;23894;51.466;7.444;2022-08-16T05:58:49;20.50;99.90
38084;DHT22;23894;51.466;7.444;2022-08-16T06:00:50;20.50;99.90
38084;DHT22;23894;51.466;7.444;2022-08-16T06:02:51;20.50;99.90
38084;DHT22;23894;51.466;7.444;2022-08-16T06:04:52;20.60;99.90
38084;DHT22;23894;51.466;7.444;2022-08-16T06:06:52;20.60;99.90
38084;DHT22;23894;51.466;7.444;2022-08-16T06:08:54;20.60;99.90
38084;DHT22;23894;51.466;7.444;2022-08-16T06:10:55;20.70;99.90
38084;DHT22;23894;51.466;7.444;2022-08-16T06:12:55;20.70;99.90
38084;DHT22;23894;51.466;7.444;2022-08-16T06:14:59;20.80;99.90
38084;DHT22;23894;51.466;7.444;2022-08-16T06:17:02;20.80;99.90
38084;DHT22;23894;51.466;7.444;2022-08-16T06:19:02;20.80;99.90
38084;DHT22;23894;51.466;7.444;2022-08-16T06:21:03;20.90;99.90
38084;DHT22;23894;51.466;7.444;2022-08-16T06:23:04;20.90;99.90
38084;DHT22;23894;51.466;7.444;2022-08-16T06:25:04;20.90;99.90
38084;DHT22;23894;51.466;7.444;2022-08-16T06:27:05;21.00;99.90
38084;DHT22;23894;51.466;7.444;2022-08-16T06:29:06;21.00;99.90
38084;DHT22;23894;51.466;7.444;2022-08-16T06:31:10;21.10;99.90
38084;DHT22;23894;51.466;7.444;2022-08-16T06:33:14;21.10;99.90
38084;DHT22;23894;51.466;7.444;2022-08-16T06:35:15;21.10;99.90
38084;DHT22;23894;51.466;7.444;2022-08-16T06:37:16;21.20;99.90
38084;DHT22;23894;51.466;7.444;2022-08-16T06:39:19;21.20;99.90
38084;DHT22;23894;51.466;7.444;2022-08-16T06:41:20;21.30;99.90
38084;DHT22;23894;51.466;7.444;2022-08-16T06:43:21;21.30;99.90
38084;DHT22;23894;51.466;7.444;2022-08-16T06:45:22;21.40;99.90
38084;DHT22;23894;51.466;7.444;2022-08-16T06:47:23;21.40;99.90
38084;DHT22;23894;51.466;7.444;2022-08-16T06:49:23;21.50;99.90
38084;DHT22;23894;51.466;7.444;2022-08-16T06:51:24;21.60;99.90
38084;DHT22;23894;51.466;7.444;2022-08-16T06:53:24;21.60;99.90
38084;DHT22;23894;51.466;7.444;2022-08-16T06:55:26;21.70;99.90
38084;DHT22;23894;51.466;7.444;2022-08-16T06:57:27;21.70;99.90
38084;DHT22;23894;51.466;7.444;2022-08-16T06:59:28;21.70;99.90
38084;DHT22;23894;51.466;7.444;2022-08-16T07:01:28;21.70;99.90
38084;DHT22;23894;51.466;7.444;2022-08-16T07:03:29;21.80;99.90
38084;DHT22;23894;51.466;7.444;2022-08-16T07:05:30;21.90;99.90
38084;DHT22;23894;51.466;7.444;2022-08-16T07:07:31;21.90;99.90
38084;DHT22;23894;51.466;7.444;2022-08-16T07:09:31;22.00;99.90
38084;DHT22;23894;51.466;7.444;2022-08-16T07:11:32;22.00;99.90
38084;DHT22;23894;51.466;7.444;2022-08-16T07:13:33;22.10;99.90
38084;DHT22;23894;51.466;7.444;2022-08-16T07:15:34;22.10;99.90
38084;DHT22;23894;51.466;7.444;2022-08-16T07:17:35;22.20;99.90
38084;DHT22;23894;51.466;7.444;2022-08-16T07:19:35;22.20;99.90
38084;DHT22;23894;51.466;7.444;2022-08-16T07:21:36;22.30;99.90
38084;DHT22;23894;51.466;7.444;2022-08-16T07:23:36;22.30;99.90
38084;DHT22;23894;51.466;7.444;2022-08-16T07:25:37;22.30;99.90
38084;DHT22;23894;51.466;7.444;2022-08-16T07:27:38;22.40;99.90
38084;DHT22;23894;51.466;7.444;2022-08-16T07:31:40;22.40;99.90
38084;DHT22;23894;51.466;7.444;2022-08-16T07:33:41;22.50;99.90
38084;DHT22;23894;51.466;7.444;2022-08-16T07:35:42;22.50;99.90
38084;DHT22;23894;51.466;7.444;2022-08-16T07:37:43;22.60;99.90
38084;DHT22;23894;51.466;7.444;2022-08-16T07:39:44;22.60;99.90
38084;DHT22;23894;51.466;7.444;2022-08-16T07:41:44;22.60;99.90
38084;DHT22;23894;51.466;7.444;2022-08-16T07:43:45;22.70;99.90
38084;DHT22;23894;51.466;7.444;2022-08-16T07:45:46;22.80;99.90
38084;DHT22;23894;51.466;7.444;2022-08-16T07:47:46;22.90;99.90
38084;DHT22;23894;51.466;7.444;2022-08-16T07:49:47;22.90;99.90
38084;DHT22;23894;51.466;7.444;2022-08-16T07:51:48;23.00;99.90
38084;DHT22;23894;51.466;7.444;2022-08-16T07:53:48;23.00;99.90
38084;DHT22;23894;51.466;7.444;2022-08-16T07:55:51;23.10;99.90
38084;DHT22;23894;51.466;7.444;2022-08-16T07:57:52;23.20;99.90
38084;DHT22;23894;51.466;7.444;2022-08-16T07:59:53;23.20;99.90
38084;DHT22;23894;51.466;7.444;2022-08-16T08:01:54;23.20;99.90
38084;DHT22;23894;51.466;7.444;2022-08-16T08:03:55;23.30;99.90
38084;DHT22;23894;51.466;7.444;2022-08-16T08:05:56;23.40;99.90
38084;DHT22;23894;51.466;7.444;2022-08-16T08:07:57;23.40;99.90
38084;DHT22;23894;51.466;7.444;2022-08-16T08:09:57;23.50;99.90
38084;DHT22;23894;51.466;7.444;2022-08-16T08:11:58;23.60;99.90
38084;DHT22;23894;51.466;7.444;2022-08-16T08:14:00;23.60;99.90
38084;DHT22;23894;51.466;7.444;2022-08-16T08:16:01;23.70;99.90
38084;DHT22;23894;51.466;7.444;2022-08-16T08:18:01;23.80;99.90
38084;DHT22;23894;51.466;7.444;2022-08-16T08:20:03;23.80;99.90
38084;DHT22;23894;51.466;7.444;2022-08-16T08:22:04;23.90;99.90
38084;DHT22;23894;51.466;7.444;2022-08-16T08:24:06;23.90;99.90
38084;DHT22;23894;51.466;7.444;2022-08-16T08:26:08;24.00;99.90
38084;DHT22;23894;51.466;7.444;2022-08-16T08:28:09;24.00;99.90
38084;DHT22;23894;51.466;7.444;2022-08-16T08:30:10;24.10;99.90
38084;DHT22;23894;51.466;7.444;2022-08-16T08:32:10;24.10;99.90
38084;DHT22;23894;51.466;7.444;2022-08-16T08:34:11;24.30;99.90
38084;DHT22;23894;51.466;7.444;2022-08-16T08:36:19;24.30;99.90
38084;DHT22;23894;51.466;7.444;2022-08-16T08:38:21;24.30;99.90
38084;DHT22;23894;51.466;7.444;2022-08-16T08:40:24;24.40;99.90
38084;DHT22;23894;51.466;7.444;2022-08-16T08:42:25;24.40;99.90
38084;DHT22;23894;51.466;7.444;2022-08-16T08:44:27;24.40;99.90
38084;DHT22;23894;51.466;7.444;2022-08-16T08:46:28;24.40;99.90
38084;DHT22;23894;51.466;7.444;2022-08-16T08:48:28;24.50;99.90
38084;DHT22;23894;51.466;7.444;2022-08-16T08:50:31;24.50;99.90
38084;DHT22;23894;51.466;7.444;2022-08-16T08:52:31;24.60;99.90
38084;DHT22;23894;51.466;7.444;2022-08-16T08:54:32;24.70;99.90
38084;DHT22;23894;51.466;7.444;2022-08-16T08:56:35;24.80;99.90
38084;DHT22;23894;51.466;7.444;2022-08-16T08:58:36;24.80;99.90
38084;DHT22;23894;51.466;7.444;2022-08-16T09:00:37;24.80;99.90
38084;DHT22;23894;51.466;7.444;2022-08-16T09:02:39;24.90;99.90
38084;DHT22;23894;51.466;7.444;2022-08-16T09:04:40;25.00;99.90
38084;DHT22;23894;51.466;7.444;2022-08-16T09:06:41;25.20;99.90
38084;DHT22;23894;51.466;7.444;2022-08-16T09:08:42;25.20;99.90
38084;DHT22;23894;51.466;7.444;2022-08-16T09:10:43;25.30;99.90
38084;DHT22;23894;51.466;7.444;2022-08-16T09:12:45;25.30;99.90
38084;DHT22;23894;51.466;7.444;2022-08-16T09:14:46;25.40;99.90
38084;DHT22;23894;51.466;7.444;2022-08-16T09:16:46;25.50;99.90
38084;DHT22;23894;51.466;7.444;2022-08-16T09:18:47;25.60;99.90
38084;DHT22;23894;51.466;7.444;2022-08-16T09:20:49;25.60;99.90
38084;DHT22;23894;51.466;7.444;2022-08-16T09:22:52;25.60;99.90
38084;DHT22;23894;51.466;7.444;2022-08-16T09:24:52;25.70;99.90
38084;DHT22;23894;51.466;7.444;2022-08-16T09:26:54;25.70;99.90
38084;DHT22;23894;51.466;7.444;2022-08-16T09:28:54;25.80;99.90
38084;DHT22;23894;51.466;7.444;2022-08-16T09:30:56;26.00;99.90
38084;DHT22;23894;51.466;7.444;2022-08-16T09:32:57;26.00;99.90
38084;DHT22;23894;51.466;7.444;2022-08-16T09:34:59;26.10;99.90
38084;DHT22;23894;51.466;7.444;2022-08-16T09:37:00;26.10;99.90
38084;DHT22;23894;51.466;7.444;2022-08-16T09:39:01;26.10;99.90
38084;DHT22;23894;51.466;7.444;2022-08-16T09:41:04;26.20;99.90
38084;DHT22;23894;51.466;7.444;2022-08-16T09:43:06;26.20;99.90
38084;DHT22;23894;51.466;7.444;2022-08-16T09:45:07;26.30;99.90
38084;DHT22;23894;51.466;7.444;2022-08-16T09:47:08;26.30;99.90
38084;DHT22;23894;51.466;7.444;2022-08-16T09:49:09;26.40;99.90
38084;DHT22;23894;51.466;7.444;2022-08-16T09:51:11;26.50;99.90
38084;DHT22;23894;51.466;7.444;2022-08-16T09:53:17;26.50;99.90
38084;DHT22;23894;51.466;7.444;2022-08-16T09:55:19;26.60;99.90
38084;DHT22;23894;51.466;7.444;2022-08-16T09:57:21;26.70;99.90
38084;DHT22;23894;51.466;7.444;2022-08-16T09:59:24;26.70;99.90
38084;DHT22;23894;51.466;7.444;2022-08-16T10:01:24;26.80;99.90
38084;DHT22;23894;51.466;7.444;2022-08-16T10:03:25;26.90;99.90
38084;DHT22;23894;51.466;7.444;2022-08-16T10:05:26;26.90;99.90
38084;DHT22;23894;51.466;7.444;2022-08-16T10:07:28;27.00;99.90
38084;DHT22;23894;51.466;7.444;2022-08-16T10:09:28;27.00;99.90
38084;DHT22;23894;51.466;7.444;2022-08-16T10:11:29;27.00;99.90
38084;DHT22;23894;51.466;7.444;2022-08-16T10:13:48;27.10;99.90
38084;DHT22;23894;51.466;7.444;2022-08-16T10:15:49;27.10;99.90
38084;DHT22;23894;51.466;7.444;2022-08-16T10:17:52;27.20;99.90
38084;DHT22;23894;51.466;7.444;2022-08-16T10:19:53;27.20;99.90
38084;DHT22;23894;51.466;7.444;2022-08-16T10:21:55;27.20;99.90
38084;DHT22;23894;51.466;7.444;2022-08-16T10:23:55;27.20;99.90
38084;DHT22;23894;51.466;7.444;2022-08-16T10:25:56;27.30;99.90
38084;DHT22;23894;51.466;7.444;2022-08-16T10:27:56;27.40;99.90
38084;DHT22;23894;51.466;7.444;2022-08-16T10:29:57;27.50;99.90
38084;DHT22;23894;51.466;7.444;2022-08-16T10:31:57;27.60;99.90
38084;DHT22;23894;51.466;7.444;2022-08-16T10:33:58;27.60;99.90
38084;DHT22;23894;51.466;7.444;2022-08-16T10:36:05;27.70;99.90
38084;DHT22;23894;51.466;7.444;2022-08-16T10:38:07;27.80;99.90
38084;DHT22;23894;51.466;7.444;2022-08-16T10:40:09;27.80;99.90
38084;DHT22;23894;51.466;7.444;2022-08-16T10:42:10;27.70;99.90
38084;DHT22;23894;51.466;7.444;2022-08-16T10:44:11;27.70;99.90
38084;DHT22;23894;51.466;7.444;2022-08-16T10:46:14;27.60;99.90
38084;DHT22;23894;51.466;7.444;2022-08-16T10:48:14;27.50;99.90
38084;DHT22;23894;51.466;7.444;2022-08-16T10:50:16;27.60;99.90
38084;DHT22;23894;51.466;7.444;2022-08-16T10:52:21;27.70;99.90
38084;DHT22;23894;51.466;7.444;2022-08-16T10:54:22;27.80;99.90
38084;DHT22;23894;51.466;7.444;2022-08-16T10:56:23;27.90;99.90
38084;DHT22;23894;51.466;7.444;2022-08-16T10:58:25;28.10;99.90
38084;DHT22;23894;51.466;7.444;2022-08-16T11:00:25;28.40;99.90
38084;DHT22;23894;51.466;7.444;2022-08-16T11:02:26;28.60;99.90
38084;DHT22;23894;51.466;7.444;2022-08-16T11:04:26;28.70;99.90
38084;DHT22;23894;51.466;7.444;2022-08-16T11:06:27;28.80;99.90
38084;DHT22;23894;51.466;7.444;2022-08-16T11:08:28;28.80;99.90
38084;DHT22;23894;51.466;7.444;2022-08-16T11:10:31;28.80;99.90
38084;DHT22;23894;51.466;7.444;2022-08-16T11:12:32;28.80;99.90
38084;DHT22;23894;51.466;7.444;2022-08-16T11:14:33;28.90;99.90
38084;DHT22;23894;51.466;7.444;2022-08-16T11:16:35;29.00;99.90
38084;DHT22;23894;51.466;7.444;2022-08-16T11:18:35;29.00;99.90
38084;DHT22;23894;51.466;7.444;2022-08-16T11:20:37;29.00;99.90
38084;DHT22;23894;51.466;7.444;2022-08-16T11:22:37;29.10;99.90
38084;DHT22;23894;51.466;7.444;2022-08-16T11:24:38;29.00;99.90
38084;DHT22;23894;51.466;7.444;2022-08-16T11:26:39;29.00;99.90
38084;DHT22;23894;51.466;7.444;2022-08-16T11:28:40;29.10;99.90
38084;DHT22;23894;51.466;7.444;2022-08-16T11:30:40;29.20;99.90
38084;DHT22;23894;51.466;7.444;2022-08-16T11:32:41;29.40;99.90
38084;DHT22;23894;51.466;7.444;2022-08-16T11:34:45;29.50;99.90
38084;DHT22;23894;51.466;7.444;2022-08-16T11:36:46;29.60;99.90
38084;DHT22;23894;51.466;7.444;2022-08-16T11:38:47;29.80;99.90
38084;DHT22;23894;51.466;7.444;2022-08-16T11:40:52;30.00;99.90
38084;DHT22;23894;51.466;7.444;2022-08-16T11:42:56;30.30;99.90
38084;DHT22;23894;51.466;7.444;2022-08-16T11:44:57;30.70;99.90
38084;DHT22;23894;51.466;7.444;2022-08-16T11:46:58;31.50;99.90
38084;DHT22;23894;51.466;7.444;2022-08-16T11:48:59;32.80;99.90
38084;DHT22;23894;51.466;7.444;2022-08-16T11:51:00;34.20;99.90
38084;DHT22;23894;51.466;7.444;2022-08-16T11:53:02;35.60;99.90
38084;DHT22;23894;51.466;7.444;2022-08-16T11:55:06;36.60;99.90
38084;DHT22;23894;51.466;7.444;2022-08-16T11:57:07;37.10;99.90
38084;DHT22;23894;51.466;7.444;2022-08-16T11:59:08;37.50;99.90
38084;DHT22;23894;51.466;7.444;2022-08-16T12:01:09;37.80;99.90
38084;DHT22;23894;51.466;7.444;2022-08-16T12:03:10;37.90;99.90
38084;DHT22;23894;51.466;7.444;2022-08-16T12:05:13;38.00;99.90
38084;DHT22;23894;51.466;7.444;2022-08-16T12:07:14;38.30;99.90
38084;DHT22;23894;51.466;7.444;2022-08-16T12:09:14;39.10;99.90
38084;DHT22;23894;51.466;7.444;2022-08-16T12:11:15;39.80;99.90
38084;DHT22;23894;51.466;7.444;2022-08-16T12:13:16;40.60;99.90
38084;DHT22;23894;51.466;7.444;2022-08-16T12:15:18;41.40;99.90
38084;DHT22;23894;51.466;7.444;2022-08-16T12:17:20;41.50;99.90
38084;DHT22;23894;51.466;7.444;2022-08-16T12:19:22;40.90;99.90
38084;DHT22;23894;51.466;7.444;2022-08-16T12:21:23;40.40;99.90
38084;DHT22;23894;51.466;7.444;2022-08-16T12:23:24;40.30;99.90
38084;DHT22;23894;51.466;7.444;2022-08-16T12:25:27;39.90;99.90
38084;DHT22;23894;51.466;7.444;2022-08-16T12:27:28;39.80;99.90
38084;DHT22;23894;51.466;7.444;2022-08-16T12:29:28;40.20;99.90
38084;DHT22;23894;51.466;7.444;2022-08-16T12:31:29;40.90;99.90
38084;DHT22;23894;51.466;7.444;2022-08-16T12:33:30;41.50;99.90
38084;DHT22;23894;51.466;7.444;2022-08-16T12:35:32;42.20;99.90
38084;DHT22;23894;51.466;7.444;2022-08-16T12:37:35;43.00;99.90
38084;DHT22;23894;51.466;7.444;2022-08-16T12:39:35;43.20;99.90
38084;DHT22;23894;51.466;7.444;2022-08-16T12:41:36;43.70;99.90
38084;DHT22;23894;51.466;7.444;2022-08-16T12:43:37;44.60;99.90
38084;DHT22;23894;51.466;7.444;2022-08-16T12:45:50;45.30;99.90
38084;DHT22;23894;51.466;7.444;2022-08-16T12:47:51;44.60;99.90
38084;DHT22;23894;51.466;7.444;2022-08-16T12:50:11;43.20;99.90
38084;DHT22;23894;51.466;7.444;2022-08-16T12:52:11;41.80;99.90
38084;DHT22;23894;51.466;7.444;2022-08-16T12:54:12;40.60;99.90
38084;DHT22;23894;51.466;7.444;2022-08-16T12:56:13;40.70;99.90